sensor_id;sensor_type;location;lat;lon;timestamp;P1;durP1;ratioP1;P2;durP2;ratioP2
54883;SDS011;40776;52.880;6.016;2023-06-10T00:01:45;7.75;;;4.57;;
54883;SDS011;40776;52.880;6.016;2023-06-10T00:04:14;11.17;;;5.03;;
54883;SDS011;40776;52.880;6.016;2023-06-10T00:06:41;11.07;;;5.22;;
54883;SDS011;40776;52.880;6.016;2023-06-10T00:09:08;9.15;;;5.38;;
54883;SDS011;40776;52.880;6.016;2023-06-10T00:11:39;10.10;;;5.20;;
54883;SDS011;40776;52.880;6.016;2023-06-10T00:14:05;9.32;;;5.63;;
54883;SDS011;40776;52.880;6.016;2023-06-10T00:16:31;10.32;;;5.30;;
54883;SDS011;40776;52.880;6.016;2023-06-10T00:18:58;8.65;;;4.53;;
54883;SDS011;40776;52.880;6.016;2023-06-10T00:21:29;11.80;;;6.07;;
54883;SDS011;40776;52.880;6.016;2023-06-10T00:24:02;10.75;;;5.30;;
54883;SDS011;40776;52.880;6.016;2023-06-10T00:26:30;11.52;;;5.07;;
54883;SDS011;40776;52.880;6.016;2023-06-10T00:28:56;10.02;;;4.80;;
54883;SDS011;40776;52.880;6.016;2023-06-10T00:31:22;10.45;;;4.80;;
54883;SDS011;40776;52.880;6.016;2023-06-10T00:33:48;11.10;;;5.20;;
54883;SDS011;40776;52.880;6.016;2023-06-10T00:36:14;11.52;;;4.88;;
54883;SDS011;40776;52.880;6.016;2023-06-10T00:38:40;8.30;;;5.10;;
54883;SDS011;40776;52.880;6.016;2023-06-10T00:41:06;7.47;;;5.50;;
54883;SDS011;40776;52.880;6.016;2023-06-10T00:43:32;10.27;;;4.97;;
54883;SDS011;40776;52.880;6.016;2023-06-10T00:45:59;13.30;;;5.00;;
54883;SDS011;40776;52.880;6.016;2023-06-10T00:48:25;17.27;;;5.97;;
54883;SDS011;40776;52.880;6.016;2023-06-10T00:50:51;11.55;;;5.40;;
54883;SDS011;40776;52.880;6.016;2023-06-10T00:53:17;13.95;;;5.30;;
54883;SDS011;40776;52.880;6.016;2023-06-10T00:55:43;8.63;;;4.93;;
54883;SDS011;40776;52.880;6.016;2023-06-10T00:58:10;10.85;;;5.13;;
54883;SDS011;40776;52.880;6.016;2023-06-10T01:00:36;11.02;;;5.13;;
54883;SDS011;40776;52.880;6.016;2023-06-10T01:03:02;12.25;;;4.95;;
54883;SDS011;40776;52.880;6.016;2023-06-10T01:10:43;12.48;;;5.28;;
54883;SDS011;40776;52.880;6.016;2023-06-10T01:13:13;8.55;;;4.53;;
54883;SDS011;40776;52.880;6.016;2023-06-10T01:15:39;8.43;;;4.60;;
54883;SDS011;40776;52.880;6.016;2023-06-10T01:18:06;11.23;;;5.07;;
54883;SDS011;40776;52.880;6.016;2023-06-10T01:20:40;12.05;;;4.85;;
54883;SDS011;40776;52.880;6.016;2023-06-10T01:23:08;11.77;;;5.50;;
54883;SDS011;40776;52.880;6.016;2023-06-10T01:25:36;9.00;;;5.22;;
54883;SDS011;40776;52.880;6.016;2023-06-10T01:31:09;10.75;;;4.85;;
54883;SDS011;40776;52.880;6.016;2023-06-10T01:33:41;12.25;;;5.57;;
54883;SDS011;40776;52.880;6.016;2023-06-10T01:36:08;12.88;;;6.13;;
54883;SDS011;40776;52.880;6.016;2023-06-10T01:38:42;10.98;;;5.82;;
54883;SDS011;40776;52.880;6.016;2023-06-10T01:41:09;9.82;;;5.18;;
54883;SDS011;40776;52.880;6.016;2023-06-10T01:43:37;9.57;;;5.07;;
54883;SDS011;40776;52.880;6.016;2023-06-10T01:46:03;12.73;;;5.70;;
54883;SDS011;40776;52.880;6.016;2023-06-10T01:48:29;9.95;;;5.50;;
54883;SDS011;40776;52.880;6.016;2023-06-10T01:50:55;10.48;;;5.15;;
54883;SDS011;40776;52.880;6.016;2023-06-10T01:53:22;8.15;;;5.03;;
54883;SDS011;40776;52.880;6.016;2023-06-10T01:55:48;12.75;;;5.53;;
54883;SDS011;40776;52.880;6.016;2023-06-10T01:58:14;10.90;;;5.38;;
54883;SDS011;40776;52.880;6.016;2023-06-10T02:00:40;8.88;;;5.05;;
54883;SDS011;40776;52.880;6.016;2023-06-10T02:03:06;16.58;;;6.40;;
54883;SDS011;40776;52.880;6.016;2023-06-10T02:05:32;10.60;;;5.65;;
54883;SDS011;40776;52.880;6.016;2023-06-10T02:07:58;12.45;;;5.68;;
54883;SDS011;40776;52.880;6.016;2023-06-10T02:10:25;9.60;;;4.82;;
54883;SDS011;40776;52.880;6.016;2023-06-10T02:12:51;10.65;;;5.70;;
54883;SDS011;40776;52.880;6.016;2023-06-10T02:15:18;11.48;;;5.53;;
54883;SDS011;40776;52.880;6.016;2023-06-10T02:17:44;9.27;;;5.20;;
54883;SDS011;40776;52.880;6.016;2023-06-10T02:20:10;10.70;;;5.82;;
54883;SDS011;40776;52.880;6.016;2023-06-10T02:22:37;10.95;;;5.13;;
54883;SDS011;40776;52.880;6.016;2023-06-10T02:25:03;14.68;;;5.35;;
54883;SDS011;40776;52.880;6.016;2023-06-10T02:27:29;11.93;;;5.63;;
54883;SDS011;40776;52.880;6.016;2023-06-10T02:29:59;13.50;;;5.72;;
54883;SDS011;40776;52.880;6.016;2023-06-10T02:32:25;12.77;;;5.60;;
54883;SDS011;40776;52.880;6.016;2023-06-10T02:34:51;9.90;;;5.57;;
54883;SDS011;40776;52.880;6.016;2023-06-10T02:37:18;11.68;;;5.25;;
54883;SDS011;40776;52.880;6.016;2023-06-10T02:39:45;10.15;;;5.10;;
54883;SDS011;40776;52.880;6.016;2023-06-10T02:42:11;12.57;;;6.00;;
54883;SDS011;40776;52.880;6.016;2023-06-10T02:44:37;11.75;;;5.35;;
54883;SDS011;40776;52.880;6.016;2023-06-10T02:47:04;10.80;;;5.47;;
54883;SDS011;40776;52.880;6.016;2023-06-10T02:49:30;15.93;;;6.03;;
54883;SDS011;40776;52.880;6.016;2023-06-10T02:51:56;16.52;;;6.07;;
54883;SDS011;40776;52.880;6.016;2023-06-10T02:54:23;13.27;;;5.38;;
54883;SDS011;40776;52.880;6.016;2023-06-10T02:56:50;12.75;;;5.35;;
54883;SDS011;40776;52.880;6.016;2023-06-10T02:59:16;10.07;;;5.30;;
54883;SDS011;40776;52.880;6.016;2023-06-10T03:01:42;9.57;;;5.88;;
54883;SDS011;40776;52.880;6.016;2023-06-10T03:04:08;12.75;;;6.05;;
54883;SDS011;40776;52.880;6.016;2023-06-10T03:06:37;13.98;;;7.10;;
54883;SDS011;40776;52.880;6.016;2023-06-10T03:09:06;13.70;;;5.43;;
54883;SDS011;40776;52.880;6.016;2023-06-10T03:11:32;13.07;;;5.85;;
54883;SDS011;40776;52.880;6.016;2023-06-10T03:13:58;13.00;;;5.75;;
54883;SDS011;40776;52.880;6.016;2023-06-10T03:16:24;10.63;;;5.38;;
54883;SDS011;40776;52.880;6.016;2023-06-10T03:18:52;13.45;;;6.22;;
54883;SDS011;40776;52.880;6.016;2023-06-10T03:21:18;11.98;;;5.10;;
54883;SDS011;40776;52.880;6.016;2023-06-10T03:23:44;10.65;;;5.25;;
54883;SDS011;40776;52.880;6.016;2023-06-10T03:26:10;16.45;;;6.07;;
54883;SDS011;40776;52.880;6.016;2023-06-10T03:28:39;10.00;;;6.15;;
54883;SDS011;40776;52.880;6.016;2023-06-10T03:31:06;10.18;;;5.38;;
54883;SDS011;40776;52.880;6.016;2023-06-10T03:33:32;12.57;;;6.07;;
54883;SDS011;40776;52.880;6.016;2023-06-10T03:35:58;13.02;;;6.15;;
54883;SDS011;40776;52.880;6.016;2023-06-10T03:38:24;12.43;;;5.45;;
54883;SDS011;40776;52.880;6.016;2023-06-10T03:40:50;12.70;;;5.38;;
54883;SDS011;40776;52.880;6.016;2023-06-10T03:43:16;8.15;;;4.85;;
54883;SDS011;40776;52.880;6.016;2023-06-10T03:45:42;8.95;;;4.80;;
54883;SDS011;40776;52.880;6.016;2023-06-10T03:48:08;12.95;;;5.38;;
54883;SDS011;40776;52.880;6.016;2023-06-10T03:50:34;9.18;;;4.85;;
54883;SDS011;40776;52.880;6.016;2023-06-10T03:53:01;11.32;;;5.03;;
54883;SDS011;40776;52.880;6.016;2023-06-10T03:55:27;10.48;;;4.85;;
54883;SDS011;40776;52.880;6.016;2023-06-10T03:57:53;10.68;;;5.00;;
54883;SDS011;40776;52.880;6.016;2023-06-10T04:00:19;13.63;;;5.55;;
54883;SDS011;40776;52.880;6.016;2023-06-10T04:02:47;9.70;;;5.30;;
54883;SDS011;40776;52.880;6.016;2023-06-10T04:05:17;11.55;;;5.63;;
54883;SDS011;40776;52.880;6.016;2023-06-10T04:07:44;6.60;;;4.10;;
54883;SDS011;40776;52.880;6.016;2023-06-10T04:10:10;9.48;;;4.90;;
54883;SDS011;40776;52.880;6.016;2023-06-10T04:12:37;10.75;;;5.60;;
54883;SDS011;40776;52.880;6.016;2023-06-10T04:15:04;8.55;;;4.60;;
54883;SDS011;40776;52.880;6.016;2023-06-10T04:17:30;13.07;;;5.82;;
54883;SDS011;40776;52.880;6.016;2023-06-10T04:19:56;9.02;;;4.57;;
54883;SDS011;40776;52.880;6.016;2023-06-10T04:22:23;9.90;;;5.05;;
54883;SDS011;40776;52.880;6.016;2023-06-10T04:24:49;7.97;;;4.65;;
54883;SDS011;40776;52.880;6.016;2023-06-10T04:27:15;11.65;;;4.78;;
54883;SDS011;40776;52.880;6.016;2023-06-10T04:29:41;11.15;;;4.38;;
54883;SDS011;40776;52.880;6.016;2023-06-10T04:32:07;9.88;;;4.25;;
54883;SDS011;40776;52.880;6.016;2023-06-10T04:34:33;10.57;;;5.25;;
54883;SDS011;40776;52.880;6.016;2023-06-10T04:37:00;8.60;;;4.15;;
54883;SDS011;40776;52.880;6.016;2023-06-10T04:39:26;8.85;;;4.38;;
54883;SDS011;40776;52.880;6.016;2023-06-10T04:41:52;10.57;;;4.30;;
54883;SDS011;40776;52.880;6.016;2023-06-10T04:44:18;9.57;;;4.20;;
54883;SDS011;40776;52.880;6.016;2023-06-10T04:46:44;9.18;;;4.07;;
54883;SDS011;40776;52.880;6.016;2023-06-10T04:49:10;10.82;;;4.38;;
54883;SDS011;40776;52.880;6.016;2023-06-10T04:51:39;10.10;;;4.43;;
54883;SDS011;40776;52.880;6.016;2023-06-10T04:54:05;10.40;;;5.20;;
54883;SDS011;40776;52.880;6.016;2023-06-10T04:56:31;7.97;;;4.50;;
54883;SDS011;40776;52.880;6.016;2023-06-10T04:58:58;11.05;;;5.05;;
54883;SDS011;40776;52.880;6.016;2023-06-10T05:01:24;7.38;;;4.10;;
54883;SDS011;40776;52.880;6.016;2023-06-10T05:03:50;11.18;;;5.05;;
54883;SDS011;40776;52.880;6.016;2023-06-10T05:06:16;8.00;;;4.57;;
54883;SDS011;40776;52.880;6.016;2023-06-10T05:08:43;10.35;;;4.05;;
54883;SDS011;40776;52.880;6.016;2023-06-10T05:11:09;14.35;;;5.68;;
54883;SDS011;40776;52.880;6.016;2023-06-10T05:13:35;9.45;;;4.47;;
54883;SDS011;40776;52.880;6.016;2023-06-10T05:16:02;8.07;;;3.70;;
54883;SDS011;40776;52.880;6.016;2023-06-10T05:18:28;9.35;;;4.07;;
54883;SDS011;40776;52.880;6.016;2023-06-10T05:20:54;12.57;;;4.65;;
54883;SDS011;40776;52.880;6.016;2023-06-10T05:23:20;10.38;;;4.63;;
54883;SDS011;40776;52.880;6.016;2023-06-10T05:25:46;13.38;;;4.50;;
54883;SDS011;40776;52.880;6.016;2023-06-10T05:28:13;12.43;;;4.43;;
54883;SDS011;40776;52.880;6.016;2023-06-10T05:30:39;8.82;;;3.97;;
54883;SDS011;40776;52.880;6.016;2023-06-10T05:33:05;9.98;;;3.97;;
54883;SDS011;40776;52.880;6.016;2023-06-10T05:35:31;9.93;;;4.13;;
54883;SDS011;40776;52.880;6.016;2023-06-10T05:37:57;14.50;;;4.65;;
54883;SDS011;40776;52.880;6.016;2023-06-10T05:40:23;9.88;;;4.07;;
54883;SDS011;40776;52.880;6.016;2023-06-10T05:42:49;7.53;;;4.07;;
54883;SDS011;40776;52.880;6.016;2023-06-10T05:45:15;9.13;;;4.30;;
54883;SDS011;40776;52.880;6.016;2023-06-10T05:47:41;6.97;;;3.83;;
54883;SDS011;40776;52.880;6.016;2023-06-10T05:50:07;9.88;;;4.80;;
54883;SDS011;40776;52.880;6.016;2023-06-10T05:52:34;9.25;;;4.43;;
54883;SDS011;40776;52.880;6.016;2023-06-10T05:55:01;6.75;;;4.28;;
54883;SDS011;40776;52.880;6.016;2023-06-10T05:57:27;11.02;;;4.53;;
54883;SDS011;40776;52.880;6.016;2023-06-10T05:59:53;10.82;;;4.55;;
54883;SDS011;40776;52.880;6.016;2023-06-10T06:02:19;11.70;;;4.50;;
54883;SDS011;40776;52.880;6.016;2023-06-10T06:04:45;10.55;;;3.85;;
54883;SDS011;40776;52.880;6.016;2023-06-10T06:07:11;16.23;;;4.82;;
54883;SDS011;40776;52.880;6.016;2023-06-10T06:09:37;9.13;;;4.25;;
54883;SDS011;40776;52.880;6.016;2023-06-10T06:12:03;10.15;;;4.78;;
54883;SDS011;40776;52.880;6.016;2023-06-10T06:14:31;8.38;;;4.03;;
54883;SDS011;40776;52.880;6.016;2023-06-10T06:16:57;9.60;;;4.40;;
54883;SDS011;40776;52.880;6.016;2023-06-10T06:19:23;6.53;;;4.07;;
54883;SDS011;40776;52.880;6.016;2023-06-10T06:21:50;10.25;;;4.05;;
54883;SDS011;40776;52.880;6.016;2023-06-10T06:24:16;10.48;;;4.10;;
54883;SDS011;40776;52.880;6.016;2023-06-10T06:26:42;9.07;;;4.55;;
54883;SDS011;40776;52.880;6.016;2023-06-10T06:29:08;7.18;;;3.85;;
54883;SDS011;40776;52.880;6.016;2023-06-10T06:31:34;7.95;;;3.70;;
54883;SDS011;40776;52.880;6.016;2023-06-10T06:34:00;12.52;;;4.25;;
54883;SDS011;40776;52.880;6.016;2023-06-10T06:36:26;10.27;;;4.05;;
54883;SDS011;40776;52.880;6.016;2023-06-10T06:38:52;8.65;;;3.78;;
54883;SDS011;40776;52.880;6.016;2023-06-10T06:41:18;7.50;;;3.72;;
54883;SDS011;40776;52.880;6.016;2023-06-10T06:43:44;8.35;;;4.03;;
54883;SDS011;40776;52.880;6.016;2023-06-10T06:46:10;10.30;;;4.03;;
54883;SDS011;40776;52.880;6.016;2023-06-10T06:48:36;10.38;;;4.22;;
54883;SDS011;40776;52.880;6.016;2023-06-10T06:51:02;7.05;;;3.97;;
54883;SDS011;40776;52.880;6.016;2023-06-10T06:53:28;7.40;;;3.70;;
54883;SDS011;40776;52.880;6.016;2023-06-10T06:55:54;9.68;;;4.03;;
54883;SDS011;40776;52.880;6.016;2023-06-10T06:58:20;9.48;;;3.80;;
54883;SDS011;40776;52.880;6.016;2023-06-10T07:00:46;7.53;;;3.63;;
54883;SDS011;40776;52.880;6.016;2023-06-10T07:03:12;9.45;;;3.42;;
54883;SDS011;40776;52.880;6.016;2023-06-10T07:05:38;10.20;;;3.72;;
54883;SDS011;40776;52.880;6.016;2023-06-10T07:08:04;7.25;;;3.78;;
54883;SDS011;40776;52.880;6.016;2023-06-10T07:10:30;8.30;;;3.60;;
54883;SDS011;40776;52.880;6.016;2023-06-10T07:12:56;8.85;;;3.72;;
54883;SDS011;40776;52.880;6.016;2023-06-10T07:15:22;9.32;;;4.00;;
54883;SDS011;40776;52.880;6.016;2023-06-10T07:17:48;7.88;;;4.35;;
54883;SDS011;40776;52.880;6.016;2023-06-10T07:20:14;8.70;;;4.03;;
54883;SDS011;40776;52.880;6.016;2023-06-10T07:22:40;7.65;;;3.83;;
54883;SDS011;40776;52.880;6.016;2023-06-10T07:25:07;10.82;;;3.97;;
54883;SDS011;40776;52.880;6.016;2023-06-10T07:27:32;8.52;;;4.18;;
54883;SDS011;40776;52.880;6.016;2023-06-10T07:29:58;9.68;;;4.20;;
54883;SDS011;40776;52.880;6.016;2023-06-10T07:32:26;8.57;;;3.90;;
54883;SDS011;40776;52.880;6.016;2023-06-10T07:34:51;9.13;;;3.80;;
54883;SDS011;40776;52.880;6.016;2023-06-10T07:37:17;10.73;;;4.03;;
54883;SDS011;40776;52.880;6.016;2023-06-10T07:39:44;10.40;;;3.67;;
54883;SDS011;40776;52.880;6.016;2023-06-10T07:42:10;6.22;;;3.08;;
54883;SDS011;40776;52.880;6.016;2023-06-10T07:44:36;11.32;;;4.10;;
54883;SDS011;40776;52.880;6.016;2023-06-10T07:47:01;9.10;;;3.40;;
54883;SDS011;40776;52.880;6.016;2023-06-10T07:49:27;8.45;;;3.50;;
54883;SDS011;40776;52.880;6.016;2023-06-10T07:51:54;9.07;;;3.08;;
54883;SDS011;40776;52.880;6.016;2023-06-10T07:54:20;9.63;;;3.55;;
54883;SDS011;40776;52.880;6.016;2023-06-10T07:56:46;13.50;;;3.88;;
54883;SDS011;40776;52.880;6.016;2023-06-10T07:59:11;7.38;;;3.63;;
54883;SDS011;40776;52.880;6.016;2023-06-10T08:01:38;7.18;;;3.33;;
54883;SDS011;40776;52.880;6.016;2023-06-10T08:04:05;7.68;;;3.42;;
54883;SDS011;40776;52.880;6.016;2023-06-10T08:06:30;10.02;;;3.72;;
54883;SDS011;40776;52.880;6.016;2023-06-10T08:08:56;7.95;;;3.63;;
54883;SDS011;40776;52.880;6.016;2023-06-10T08:11:22;8.50;;;3.42;;
54883;SDS011;40776;52.880;6.016;2023-06-10T08:13:47;7.13;;;3.55;;
54883;SDS011;40776;52.880;6.016;2023-06-10T08:16:13;7.43;;;3.70;;
54883;SDS011;40776;52.880;6.016;2023-06-10T08:18:39;7.30;;;3.20;;
54883;SDS011;40776;52.880;6.016;2023-06-10T08:21:05;10.73;;;3.90;;
54883;SDS011;40776;52.880;6.016;2023-06-10T08:23:31;5.28;;;3.15;;
54883;SDS011;40776;52.880;6.016;2023-06-10T08:25:56;6.93;;;3.10;;
54883;SDS011;40776;52.880;6.016;2023-06-10T08:28:23;8.45;;;3.67;;
54883;SDS011;40776;52.880;6.016;2023-06-10T08:30:48;6.80;;;3.78;;
54883;SDS011;40776;52.880;6.016;2023-06-10T08:33:14;7.22;;;4.03;;
54883;SDS011;40776;52.880;6.016;2023-06-10T08:35:40;12.18;;;3.92;;
54883;SDS011;40776;52.880;6.016;2023-06-10T08:38:06;6.97;;;2.92;;
54883;SDS011;40776;52.880;6.016;2023-06-10T08:40:32;7.53;;;3.80;;
54883;SDS011;40776;52.880;6.016;2023-06-10T08:43:00;5.20;;;3.08;;
54883;SDS011;40776;52.880;6.016;2023-06-10T08:45:32;5.13;;;3.03;;
54883;SDS011;40776;52.880;6.016;2023-06-10T08:48:02;8.88;;;3.13;;
54883;SDS011;40776;52.880;6.016;2023-06-10T08:50:32;6.90;;;3.63;;
54883;SDS011;40776;52.880;6.016;2023-06-10T08:53:01;7.10;;;3.30;;
54883;SDS011;40776;52.880;6.016;2023-06-10T08:55:30;7.88;;;3.45;;
54883;SDS011;40776;52.880;6.016;2023-06-10T08:58:06;8.65;;;3.95;;
54883;SDS011;40776;52.880;6.016;2023-06-10T09:00:32;6.90;;;3.40;;
54883;SDS011;40776;52.880;6.016;2023-06-10T09:03:00;7.60;;;3.95;;
54883;SDS011;40776;52.880;6.016;2023-06-10T09:05:27;6.85;;;3.42;;
54883;SDS011;40776;52.880;6.016;2023-06-10T09:07:54;6.65;;;3.38;;
54883;SDS011;40776;52.880;6.016;2023-06-10T09:10:22;7.70;;;4.03;;
54883;SDS011;40776;52.880;6.016;2023-06-10T09:12:48;9.27;;;3.28;;
54883;SDS011;40776;52.880;6.016;2023-06-10T09:15:13;11.23;;;4.07;;
54883;SDS011;40776;52.880;6.016;2023-06-10T09:17:39;8.05;;;3.78;;
54883;SDS011;40776;52.880;6.016;2023-06-10T09:20:08;8.15;;;4.25;;
54883;SDS011;40776;52.880;6.016;2023-06-10T09:22:34;6.72;;;3.20;;
54883;SDS011;40776;52.880;6.016;2023-06-10T09:25:07;8.27;;;3.67;;
54883;SDS011;40776;52.880;6.016;2023-06-10T09:27:47;7.75;;;3.95;;
54883;SDS011;40776;52.880;6.016;2023-06-10T09:32:55;8.05;;;3.42;;
54883;SDS011;40776;52.880;6.016;2023-06-10T09:35:25;7.35;;;3.45;;
54883;SDS011;40776;52.880;6.016;2023-06-10T09:37:55;8.60;;;3.42;;
54883;SDS011;40776;52.880;6.016;2023-06-10T09:40:22;6.82;;;3.58;;
54883;SDS011;40776;52.880;6.016;2023-06-10T09:42:56;6.90;;;3.40;;
54883;SDS011;40776;52.880;6.016;2023-06-10T09:45:28;7.22;;;3.40;;
54883;SDS011;40776;52.880;6.016;2023-06-10T09:47:55;6.15;;;3.33;;
54883;SDS011;40776;52.880;6.016;2023-06-10T09:50:21;6.80;;;3.50;;
54883;SDS011;40776;52.880;6.016;2023-06-10T09:52:47;6.03;;;3.15;;
54883;SDS011;40776;52.880;6.016;2023-06-10T09:55:13;10.82;;;3.20;;
54883;SDS011;40776;52.880;6.016;2023-06-10T09:57:39;7.72;;;3.08;;
54883;SDS011;40776;52.880;6.016;2023-06-10T10:00:07;9.60;;;3.40;;
54883;SDS011;40776;52.880;6.016;2023-06-10T10:02:44;10.02;;;3.30;;
54883;SDS011;40776;52.880;6.016;2023-06-10T10:05:18;5.88;;;3.13;;
54883;SDS011;40776;52.880;6.016;2023-06-10T10:07:45;9.10;;;3.13;;
54883;SDS011;40776;52.880;6.016;2023-06-10T10:10:12;5.45;;;3.28;;
54883;SDS011;40776;52.880;6.016;2023-06-10T10:12:39;7.10;;;4.07;;
54883;SDS011;40776;52.880;6.016;2023-06-10T10:15:06;7.40;;;2.95;;
54883;SDS011;40776;52.880;6.016;2023-06-10T10:17:46;10.52;;;3.35;;
54883;SDS011;40776;52.880;6.016;2023-06-10T10:20:17;11.07;;;3.58;;
54883;SDS011;40776;52.880;6.016;2023-06-10T10:25:19;7.70;;;3.35;;
54883;SDS011;40776;52.880;6.016;2023-06-10T10:27:56;4.60;;;2.75;;
54883;SDS011;40776;52.880;6.016;2023-06-10T10:30:27;5.10;;;2.88;;
54883;SDS011;40776;52.880;6.016;2023-06-10T10:32:57;5.50;;;2.70;;
54883;SDS011;40776;52.880;6.016;2023-06-10T10:35:26;8.07;;;3.10;;
54883;SDS011;40776;52.880;6.016;2023-06-10T10:37:52;7.30;;;3.17;;
54883;SDS011;40776;52.880;6.016;2023-06-10T10:40:20;6.28;;;2.92;;
54883;SDS011;40776;52.880;6.016;2023-06-10T10:42:47;6.40;;;2.72;;
54883;SDS011;40776;52.880;6.016;2023-06-10T10:45:17;5.65;;;2.85;;
54883;SDS011;40776;52.880;6.016;2023-06-10T10:47:44;5.93;;;2.63;;
54883;SDS011;40776;52.880;6.016;2023-06-10T10:50:17;21.58;;;3.42;;
54883;SDS011;40776;52.880;6.016;2023-06-10T10:52:54;11.45;;;3.42;;
54883;SDS011;40776;52.880;6.016;2023-06-10T10:55:25;4.40;;;2.20;;
54883;SDS011;40776;52.880;6.016;2023-06-10T10:57:55;4.13;;;2.78;;
54883;SDS011;40776;52.880;6.016;2023-06-10T11:00:27;3.78;;;2.60;;
54883;SDS011;40776;52.880;6.016;2023-06-10T11:02:57;5.63;;;2.85;;
54883;SDS011;40776;52.880;6.016;2023-06-10T11:05:32;7.78;;;2.80;;
54883;SDS011;40776;52.880;6.016;2023-06-10T11:10:32;5.20;;;2.85;;
54883;SDS011;40776;52.880;6.016;2023-06-10T11:12:58;6.50;;;2.58;;
54883;SDS011;40776;52.880;6.016;2023-06-10T11:15:25;4.25;;;2.70;;
54883;SDS011;40776;52.880;6.016;2023-06-10T11:20:44;5.18;;;2.38;;
54883;SDS011;40776;52.880;6.016;2023-06-10T11:23:26;6.13;;;2.70;;
54883;SDS011;40776;52.880;6.016;2023-06-10T11:31:23;6.25;;;2.92;;
54883;SDS011;40776;52.880;6.016;2023-06-10T11:33:59;6.13;;;2.97;;
54883;SDS011;40776;52.880;6.016;2023-06-10T11:36:26;9.18;;;3.40;;
54883;SDS011;40776;52.880;6.016;2023-06-10T11:38:57;6.43;;;2.40;;
54883;SDS011;40776;52.880;6.016;2023-06-10T11:41:24;6.45;;;2.40;;
54883;SDS011;40776;52.880;6.016;2023-06-10T11:43:51;8.23;;;3.08;;
54883;SDS011;40776;52.880;6.016;2023-06-10T11:46:17;6.30;;;2.83;;
54883;SDS011;40776;52.880;6.016;2023-06-10T11:48:49;5.20;;;3.05;;
54883;SDS011;40776;52.880;6.016;2023-06-10T11:51:19;5.60;;;2.53;;
54883;SDS011;40776;52.880;6.016;2023-06-10T11:53:46;4.85;;;2.55;;
54883;SDS011;40776;52.880;6.016;2023-06-10T11:56:12;7.15;;;2.55;;
54883;SDS011;40776;52.880;6.016;2023-06-10T11:58:39;4.72;;;2.42;;
54883;SDS011;40776;52.880;6.016;2023-06-10T12:01:10;6.05;;;2.53;;
54883;SDS011;40776;52.880;6.016;2023-06-10T12:03:36;5.82;;;2.42;;
54883;SDS011;40776;52.880;6.016;2023-06-10T12:06:05;4.63;;;2.58;;
54883;SDS011;40776;52.880;6.016;2023-06-10T12:08:34;4.00;;;2.20;;
54883;SDS011;40776;52.880;6.016;2023-06-10T12:11:07;4.53;;;2.08;;
54883;SDS011;40776;52.880;6.016;2023-06-10T12:13:33;5.45;;;2.20;;
54883;SDS011;40776;52.880;6.016;2023-06-10T12:16:08;3.60;;;2.30;;
54883;SDS011;40776;52.880;6.016;2023-06-10T12:18:34;7.70;;;2.53;;
54883;SDS011;40776;52.880;6.016;2023-06-10T12:21:00;7.18;;;2.60;;
54883;SDS011;40776;52.880;6.016;2023-06-10T12:23:26;5.40;;;2.30;;
54883;SDS011;40776;52.880;6.016;2023-06-10T12:25:52;5.95;;;2.67;;
54883;SDS011;40776;52.880;6.016;2023-06-10T12:28:26;5.05;;;2.33;;
54883;SDS011;40776;52.880;6.016;2023-06-10T12:31:07;3.75;;;1.95;;
54883;SDS011;40776;52.880;6.016;2023-06-10T12:33:33;6.22;;;2.17;;
54883;SDS011;40776;52.880;6.016;2023-06-10T12:35:59;4.25;;;2.20;;
54883;SDS011;40776;52.880;6.016;2023-06-10T12:38:25;5.70;;;2.33;;
54883;SDS011;40776;52.880;6.016;2023-06-10T12:41:01;3.95;;;2.08;;
54883;SDS011;40776;52.880;6.016;2023-06-10T12:43:28;6.45;;;2.35;;
54883;SDS011;40776;52.880;6.016;2023-06-10T12:46:07;4.68;;;2.40;;
54883;SDS011;40776;52.880;6.016;2023-06-10T12:48:34;4.13;;;2.50;;
54883;SDS011;40776;52.880;6.016;2023-06-10T12:51:00;3.70;;;1.95;;
54883;SDS011;40776;52.880;6.016;2023-06-10T12:53:26;9.10;;;2.22;;
54883;SDS011;40776;52.880;6.016;2023-06-10T12:55:52;4.50;;;2.50;;
54883;SDS011;40776;52.880;6.016;2023-06-10T12:58:21;7.95;;;2.33;;
54883;SDS011;40776;52.880;6.016;2023-06-10T13:00:48;5.75;;;2.17;;
54883;SDS011;40776;52.880;6.016;2023-06-10T13:03:14;4.20;;;2.10;;
54883;SDS011;40776;52.880;6.016;2023-06-10T13:05:40;5.20;;;2.50;;
54883;SDS011;40776;52.880;6.016;2023-06-10T13:08:06;4.82;;;2.08;;
54883;SDS011;40776;52.880;6.016;2023-06-10T13:10:35;6.38;;;2.30;;
54883;SDS011;40776;52.880;6.016;2023-06-10T13:13:01;4.95;;;2.58;;
54883;SDS011;40776;52.880;6.016;2023-06-10T13:15:30;6.57;;;2.47;;
54883;SDS011;40776;52.880;6.016;2023-06-10T13:17:56;9.43;;;2.08;;
54883;SDS011;40776;52.880;6.016;2023-06-10T13:20:22;3.83;;;1.77;;
54883;SDS011;40776;52.880;6.016;2023-06-10T13:22:48;5.97;;;2.10;;
54883;SDS011;40776;52.880;6.016;2023-06-10T13:25:14;4.72;;;2.03;;
54883;SDS011;40776;52.880;6.016;2023-06-10T13:27:40;4.60;;;2.28;;
54883;SDS011;40776;52.880;6.016;2023-06-10T13:30:07;5.15;;;2.05;;
54883;SDS011;40776;52.880;6.016;2023-06-10T13:32:34;5.97;;;2.10;;
54883;SDS011;40776;52.880;6.016;2023-06-10T13:35:02;3.42;;;1.98;;
54883;SDS011;40776;52.880;6.016;2023-06-10T13:37:28;6.13;;;2.20;;
54883;SDS011;40776;52.880;6.016;2023-06-10T13:39:54;3.85;;;2.17;;
54883;SDS011;40776;52.880;6.016;2023-06-10T13:42:20;4.65;;;2.30;;
54883;SDS011;40776;52.880;6.016;2023-06-10T13:44:46;5.90;;;2.28;;
54883;SDS011;40776;52.880;6.016;2023-06-10T13:47:13;3.83;;;1.83;;
54883;SDS011;40776;52.880;6.016;2023-06-10T13:49:39;3.30;;;1.70;;
54883;SDS011;40776;52.880;6.016;2023-06-10T13:52:05;3.95;;;2.10;;
54883;SDS011;40776;52.880;6.016;2023-06-10T13:54:32;9.20;;;2.20;;
54883;SDS011;40776;52.880;6.016;2023-06-10T13:56:58;5.25;;;2.03;;
54883;SDS011;40776;52.880;6.016;2023-06-10T13:59:24;6.30;;;2.38;;
54883;SDS011;40776;52.880;6.016;2023-06-10T14:01:49;5.97;;;1.75;;
54883;SDS011;40776;52.880;6.016;2023-06-10T14:04:15;3.70;;;2.53;;
54883;SDS011;40776;52.880;6.016;2023-06-10T14:06:41;3.70;;;1.95;;
54883;SDS011;40776;52.880;6.016;2023-06-10T14:09:06;4.45;;;2.28;;
54883;SDS011;40776;52.880;6.016;2023-06-10T14:11:32;5.15;;;2.03;;
54883;SDS011;40776;52.880;6.016;2023-06-10T14:13:58;4.85;;;1.85;;
54883;SDS011;40776;52.880;6.016;2023-06-10T14:16:24;3.88;;;2.10;;
54883;SDS011;40776;52.880;6.016;2023-06-10T14:18:50;3.95;;;1.80;;
54883;SDS011;40776;52.880;6.016;2023-06-10T14:21:18;5.40;;;1.73;;
54883;SDS011;40776;52.880;6.016;2023-06-10T14:23:44;6.03;;;1.90;;
54883;SDS011;40776;52.880;6.016;2023-06-10T14:26:11;3.97;;;1.88;;
54883;SDS011;40776;52.880;6.016;2023-06-10T14:28:37;6.95;;;2.00;;
54883;SDS011;40776;52.880;6.016;2023-06-10T14:31:03;8.82;;;2.17;;
54883;SDS011;40776;52.880;6.016;2023-06-10T14:33:29;3.83;;;1.98;;
54883;SDS011;40776;52.880;6.016;2023-06-10T14:35:56;3.85;;;1.70;;
54883;SDS011;40776;52.880;6.016;2023-06-10T14:38:22;5.63;;;2.40;;
54883;SDS011;40776;52.880;6.016;2023-06-10T14:40:47;2.97;;;1.90;;
54883;SDS011;40776;52.880;6.016;2023-06-10T14:43:13;5.93;;;2.17;;
54883;SDS011;40776;52.880;6.016;2023-06-10T14:45:39;5.28;;;2.53;;
54883;SDS011;40776;52.880;6.016;2023-06-10T14:48:05;8.55;;;2.45;;
54883;SDS011;40776;52.880;6.016;2023-06-10T14:50:32;8.05;;;2.20;;
54883;SDS011;40776;52.880;6.016;2023-06-10T14:53:01;6.28;;;2.03;;
54883;SDS011;40776;52.880;6.016;2023-06-10T14:55:27;4.80;;;1.98;;
54883;SDS011;40776;52.880;6.016;2023-06-10T14:57:52;10.98;;;2.33;;
54883;SDS011;40776;52.880;6.016;2023-06-10T15:00:18;5.20;;;2.65;;
54883;SDS011;40776;52.880;6.016;2023-06-10T15:02:50;4.07;;;1.80;;
54883;SDS011;40776;52.880;6.016;2023-06-10T15:05:17;3.85;;;2.10;;
54883;SDS011;40776;52.880;6.016;2023-06-10T15:07:44;3.30;;;2.20;;